<?xml version="1.0" encoding="UTF-8" standalone="no" ?>
<gpx xmlns="http://www.topografix.com/GPX/1/1" xmlns:xsi="http://www.w3.org/2001/XMLSchema-instance" xsi:schemaLocation="http://www.topografix.com/GPX/1/1 http://www.topografix.com/GPX/1/1/gpx.xsd" version="1.1" creator="VisuGPX - https://www.visugpx.com">
  <metadata>
    <name>Reze_Autour_8-19km</name>
    <desc><![CDATA[gnerando idor:5792578_5792726_5814453_5825877_6470772_8005623_8320604_9624624__]]></desc>
  </metadata>
  <trk>
    <name><![CDATA[Reze_SevreEtJaguere_13.5km-5792726]]></name>
    <extensions>
      <line xmlns="http://www.topografix.com/GPX/gpx_style/0/2">
        <color>880000</color>
        <width>4</width>
      </line>
    </extensions>
    <trkseg>
      <trkpt lat="47.18062" lon="-1.57149">
        <ele>22</ele>
        <time>2023-11-11T18:51:49Z</time>
      </trkpt>
      <trkpt lat="47.1805" lon="-1.57215">
        <ele>21</ele>
        <time>2023-11-11T18:52:51Z</time>
      </trkpt>
      <trkpt lat="47.18063" lon="-1.57281">
        <ele>20</ele>
        <time>2023-11-11T18:53:53Z</time>
      </trkpt>
      <trkpt lat="47.18092" lon="-1.57374">
        <ele>19</ele>
        <time>2023-11-11T18:55:26Z</time>
      </trkpt>
      <trkpt lat="47.18066" lon="-1.57397">
        <ele>18</ele>
        <time>2023-11-11T18:56:07Z</time>
      </trkpt>
      <trkpt lat="47.18041" lon="-1.57406">
        <ele>18</ele>
        <time>2023-11-11T18:56:41Z</time>
      </trkpt>
      <trkpt lat="47.18029" lon="-1.5741">
        <ele>18</ele>
        <time>2023-11-11T18:56:57Z</time>
      </trkpt>
      <trkpt lat="47.18009" lon="-1.57412">
        <ele>17</ele>
        <time>2023-11-11T18:57:24Z</time>
      </trkpt>
      <trkpt lat="47.17987" lon="-1.5741">
        <ele>18</ele>
        <time>2023-11-11T18:57:54Z</time>
      </trkpt>
      <trkpt lat="47.17941" lon="-1.57404">
        <ele>19</ele>
        <time>2023-11-11T18:58:55Z</time>
      </trkpt>
      <trkpt lat="47.17916" lon="-1.57387">
        <ele>20</ele>
        <time>2023-11-11T18:59:32Z</time>
      </trkpt>
      <trkpt lat="47.17883" lon="-1.57364">
        <ele>22</ele>
        <time>2023-11-11T19:00:21Z</time>
      </trkpt>
      <trkpt lat="47.17867" lon="-1.57342">
        <ele>22</ele>
        <time>2023-11-11T19:00:50Z</time>
      </trkpt>
      <trkpt lat="47.17855" lon="-1.57315">
        <ele>23</ele>
        <time>2023-11-11T19:01:19Z</time>
      </trkpt>
      <trkpt lat="47.17849" lon="-1.57268">
        <ele>24</ele>
        <time>2023-11-11T19:02:02Z</time>
      </trkpt>
      <trkpt lat="47.17835" lon="-1.57255">
        <ele>24</ele>
        <time>2023-11-11T19:02:25Z</time>
      </trkpt>
      <trkpt lat="47.1781" lon="-1.57241">
        <ele>24</ele>
        <time>2023-11-11T19:03:00Z</time>
      </trkpt>
      <trkpt lat="47.17773" lon="-1.57187">
        <ele>24</ele>
        <time>2023-11-11T19:04:10Z</time>
      </trkpt>
      <trkpt lat="47.17684" lon="-1.5705">
        <ele>23</ele>
        <time>2023-11-11T19:07:02Z</time>
      </trkpt>
      <trkpt lat="47.17542" lon="-1.5683">
        <ele>26</ele>
        <time>2023-11-11T19:11:37Z</time>
      </trkpt>
      <trkpt lat="47.1755" lon="-1.5679">
        <ele>26</ele>
        <time>2023-11-11T19:12:15Z</time>
      </trkpt>
      <trkpt lat="47.17556" lon="-1.56688">
        <ele>27</ele>
        <time>2023-11-11T19:13:48Z</time>
      </trkpt>
      <trkpt lat="47.17474" lon="-1.56616">
        <ele>26</ele>
        <time>2023-11-11T19:15:55Z</time>
      </trkpt>
      <trkpt lat="47.17416" lon="-1.56601">
        <ele>25</ele>
        <time>2023-11-11T19:17:14Z</time>
      </trkpt>
      <trkpt lat="47.17387" lon="-1.56526">
        <ele>26</ele>
        <time>2023-11-11T19:18:32Z</time>
      </trkpt>
      <trkpt lat="47.17351" lon="-1.56526">
        <ele>26</ele>
        <time>2023-11-11T19:19:20Z</time>
      </trkpt>
      <trkpt lat="47.17261" lon="-1.56443">
        <ele>24</ele>
        <time>2023-11-11T19:21:42Z</time>
      </trkpt>
      <trkpt lat="47.17238" lon="-1.56401">
        <ele>24</ele>
        <time>2023-11-11T19:22:31Z</time>
      </trkpt>
      <trkpt lat="47.17225" lon="-1.5634">
        <ele>27</ele>
        <time>2023-11-11T19:23:29Z</time>
      </trkpt>
      <trkpt lat="47.17217" lon="-1.56326">
        <ele>28</ele>
        <time>2023-11-11T19:23:45Z</time>
      </trkpt>
      <trkpt lat="47.17187" lon="-1.56334">
        <ele>28</ele>
        <time>2023-11-11T19:24:26Z</time>
      </trkpt>
      <trkpt lat="47.17151" lon="-1.56357">
        <ele>26</ele>
        <time>2023-11-11T19:25:18Z</time>
      </trkpt>
      <trkpt lat="47.17135" lon="-1.56341">
        <ele>27</ele>
        <time>2023-11-11T19:25:44Z</time>
      </trkpt>
      <trkpt lat="47.17113" lon="-1.56308">
        <ele>27</ele>
        <time>2023-11-11T19:26:26Z</time>
      </trkpt>
      <trkpt lat="47.17088" lon="-1.56266">
        <ele>25</ele>
        <time>2023-11-11T19:27:17Z</time>
      </trkpt>
      <trkpt lat="47.17087" lon="-1.56246">
        <ele>25</ele>
        <time>2023-11-11T19:27:35Z</time>
      </trkpt>
      <trkpt lat="47.17077" lon="-1.56236">
        <ele>25</ele>
        <time>2023-11-11T19:27:51Z</time>
      </trkpt>
      <trkpt lat="47.17068" lon="-1.56246">
        <ele>25</ele>
        <time>2023-11-11T19:28:06Z</time>
      </trkpt>
      <trkpt lat="47.17058" lon="-1.56245">
        <ele>25</ele>
        <time>2023-11-11T19:28:19Z</time>
      </trkpt>
      <trkpt lat="47.17053" lon="-1.56256">
        <ele>25</ele>
        <time>2023-11-11T19:28:31Z</time>
      </trkpt>
      <trkpt lat="47.17043" lon="-1.5626">
        <ele>25</ele>
        <time>2023-11-11T19:28:45Z</time>
      </trkpt>
      <trkpt lat="47.17034" lon="-1.56244">
        <ele>26</ele>
        <time>2023-11-11T19:29:04Z</time>
      </trkpt>
      <trkpt lat="47.17012" lon="-1.56246">
        <ele>26</ele>
        <time>2023-11-11T19:29:34Z</time>
      </trkpt>
      <trkpt lat="47.17" lon="-1.56246">
        <ele>26</ele>
        <time>2023-11-11T19:29:50Z</time>
      </trkpt>
      <trkpt lat="47.16992" lon="-1.56251">
        <ele>26</ele>
        <time>2023-11-11T19:30:01Z</time>
      </trkpt>
      <trkpt lat="47.16983" lon="-1.56244">
        <ele>26</ele>
        <time>2023-11-11T19:30:15Z</time>
      </trkpt>
      <trkpt lat="47.16974" lon="-1.56201">
        <ele>26</ele>
        <time>2023-11-11T19:30:56Z</time>
      </trkpt>
      <trkpt lat="47.16964" lon="-1.56199">
        <ele>26</ele>
        <time>2023-11-11T19:31:09Z</time>
      </trkpt>
      <trkpt lat="47.16951" lon="-1.56196">
        <ele>26</ele>
        <time>2023-11-11T19:31:27Z</time>
      </trkpt>
      <trkpt lat="47.16947" lon="-1.56177">
        <ele>26</ele>
        <time>2023-11-11T19:31:45Z</time>
      </trkpt>
      <trkpt lat="47.16939" lon="-1.56144">
        <ele>26</ele>
        <time>2023-11-11T19:32:16Z</time>
      </trkpt>
      <trkpt lat="47.1693" lon="-1.56145">
        <ele>26</ele>
        <time>2023-11-11T19:32:28Z</time>
      </trkpt>
      <trkpt lat="47.16916" lon="-1.56131">
        <ele>26</ele>
        <time>2023-11-11T19:32:51Z</time>
      </trkpt>
      <trkpt lat="47.16907" lon="-1.56121">
        <ele>26</ele>
        <time>2023-11-11T19:33:06Z</time>
      </trkpt>
      <trkpt lat="47.16891" lon="-1.56092">
        <ele>26</ele>
        <time>2023-11-11T19:33:40Z</time>
      </trkpt>
      <trkpt lat="47.16873" lon="-1.56069">
        <ele>26</ele>
        <time>2023-11-11T19:34:12Z</time>
      </trkpt>
      <trkpt lat="47.16846" lon="-1.56029">
        <ele>26</ele>
        <time>2023-11-11T19:35:03Z</time>
      </trkpt>
      <trkpt lat="47.16842" lon="-1.56016">
        <ele>27</ele>
        <time>2023-11-11T19:35:16Z</time>
      </trkpt>
      <trkpt lat="47.16905" lon="-1.55974">
        <ele>27</ele>
        <time>2023-11-11T19:36:48Z</time>
      </trkpt>
      <trkpt lat="47.16916" lon="-1.55976">
        <ele>27</ele>
        <time>2023-11-11T19:37:03Z</time>
      </trkpt>
      <trkpt lat="47.17075" lon="-1.55668">
        <ele>32</ele>
        <time>2023-11-11T19:42:54Z</time>
      </trkpt>
      <trkpt lat="47.1709" lon="-1.55637">
        <ele>33</ele>
        <time>2023-11-11T19:43:28Z</time>
      </trkpt>
      <trkpt lat="47.17108" lon="-1.556">
        <ele>35</ele>
        <time>2023-11-11T19:44:10Z</time>
      </trkpt>
      <trkpt lat="47.1707" lon="-1.55542">
        <ele>34</ele>
        <time>2023-11-11T19:45:23Z</time>
      </trkpt>
      <trkpt lat="47.1701" lon="-1.55485">
        <ele>32</ele>
        <time>2023-11-11T19:46:58Z</time>
      </trkpt>
      <trkpt lat="47.16987" lon="-1.5547">
        <ele>32</ele>
        <time>2023-11-11T19:47:32Z</time>
      </trkpt>
      <trkpt lat="47.1704" lon="-1.55375">
        <ele>35</ele>
        <time>2023-11-11T19:49:23Z</time>
      </trkpt>
      <trkpt lat="47.17097" lon="-1.55277">
        <ele>38</ele>
        <time>2023-11-11T19:51:20Z</time>
      </trkpt>
      <trkpt lat="47.17074" lon="-1.55254">
        <ele>38</ele>
        <time>2023-11-11T19:51:57Z</time>
      </trkpt>
      <trkpt lat="47.17191" lon="-1.5506">
        <ele>37</ele>
        <time>2023-11-11T19:55:52Z</time>
      </trkpt>
      <trkpt lat="47.17173" lon="-1.55028">
        <ele>38</ele>
        <time>2023-11-11T19:56:30Z</time>
      </trkpt>
      <trkpt lat="47.17258" lon="-1.54915">
        <ele>34</ele>
        <time>2023-11-11T19:59:03Z</time>
      </trkpt>
      <trkpt lat="47.17278" lon="-1.54934">
        <ele>34</ele>
        <time>2023-11-11T19:59:35Z</time>
      </trkpt>
      <trkpt lat="47.17311" lon="-1.54886">
        <ele>33</ele>
        <time>2023-11-11T20:00:37Z</time>
      </trkpt>
      <trkpt lat="47.17341" lon="-1.54877">
        <ele>33</ele>
        <time>2023-11-11T20:01:18Z</time>
      </trkpt>
      <trkpt lat="47.17413" lon="-1.54784">
        <ele>32</ele>
        <time>2023-11-11T20:03:25Z</time>
      </trkpt>
      <trkpt lat="47.17415" lon="-1.54758">
        <ele>32</ele>
        <time>2023-11-11T20:03:49Z</time>
      </trkpt>
      <trkpt lat="47.17346" lon="-1.54696">
        <ele>33</ele>
        <time>2023-11-11T20:05:37Z</time>
      </trkpt>
      <trkpt lat="47.17318" lon="-1.54675">
        <ele>33</ele>
        <time>2023-11-11T20:06:19Z</time>
      </trkpt>
      <trkpt lat="47.17344" lon="-1.54631">
        <ele>34</ele>
        <time>2023-11-11T20:07:12Z</time>
      </trkpt>
      <trkpt lat="47.17374" lon="-1.54572">
        <ele>34</ele>
        <time>2023-11-11T20:08:19Z</time>
      </trkpt>
      <trkpt lat="47.17273" lon="-1.54513">
        <ele>36</ele>
        <time>2023-11-11T20:10:44Z</time>
      </trkpt>
      <trkpt lat="47.17279" lon="-1.54472">
        <ele>35</ele>
        <time>2023-11-11T20:11:22Z</time>
      </trkpt>
      <trkpt lat="47.17288" lon="-1.54463">
        <ele>35</ele>
        <time>2023-11-11T20:11:36Z</time>
      </trkpt>
      <trkpt lat="47.17296" lon="-1.54344">
        <ele>35</ele>
        <time>2023-11-11T20:13:25Z</time>
      </trkpt>
      <trkpt lat="47.17315" lon="-1.54342">
        <ele>34</ele>
        <time>2023-11-11T20:13:50Z</time>
      </trkpt>
      <trkpt lat="47.17332" lon="-1.54276">
        <ele>34</ele>
        <time>2023-11-11T20:14:54Z</time>
      </trkpt>
      <trkpt lat="47.17353" lon="-1.54211">
        <ele>34</ele>
        <time>2023-11-11T20:16:00Z</time>
      </trkpt>
      <trkpt lat="47.1737" lon="-1.54164">
        <ele>34</ele>
        <time>2023-11-11T20:16:48Z</time>
      </trkpt>
      <trkpt lat="47.17379" lon="-1.5416">
        <ele>33</ele>
        <time>2023-11-11T20:17:00Z</time>
      </trkpt>
      <trkpt lat="47.17392" lon="-1.54163">
        <ele>33</ele>
        <time>2023-11-11T20:17:18Z</time>
      </trkpt>
      <trkpt lat="47.17392" lon="-1.54094">
        <ele>32</ele>
        <time>2023-11-11T20:18:20Z</time>
      </trkpt>
      <trkpt lat="47.174" lon="-1.54103">
        <ele>32</ele>
        <time>2023-11-11T20:18:34Z</time>
      </trkpt>
      <trkpt lat="47.17409" lon="-1.54074">
        <ele>32</ele>
        <time>2023-11-11T20:19:03Z</time>
      </trkpt>
      <trkpt lat="47.17414" lon="-1.54053">
        <ele>32</ele>
        <time>2023-11-11T20:19:23Z</time>
      </trkpt>
      <trkpt lat="47.17424" lon="-1.5403">
        <ele>31</ele>
        <time>2023-11-11T20:19:48Z</time>
      </trkpt>
      <trkpt lat="47.17431" lon="-1.54007">
        <ele>31</ele>
        <time>2023-11-11T20:20:11Z</time>
      </trkpt>
      <trkpt lat="47.17445" lon="-1.53978">
        <ele>31</ele>
        <time>2023-11-11T20:20:43Z</time>
      </trkpt>
      <trkpt lat="47.17467" lon="-1.53881">
        <ele>30</ele>
        <time>2023-11-11T20:22:16Z</time>
      </trkpt>
      <trkpt lat="47.17451" lon="-1.53852">
        <ele>30</ele>
        <time>2023-11-11T20:22:50Z</time>
      </trkpt>
      <trkpt lat="47.17494" lon="-1.53795">
        <ele>30</ele>
        <time>2023-11-11T20:24:07Z</time>
      </trkpt>
      <trkpt lat="47.1754" lon="-1.53735">
        <ele>30</ele>
        <time>2023-11-11T20:25:29Z</time>
      </trkpt>
      <trkpt lat="47.17506" lon="-1.53692">
        <ele>29</ele>
        <time>2023-11-11T20:26:29Z</time>
      </trkpt>
      <trkpt lat="47.17442" lon="-1.53599">
        <ele>28</ele>
        <time>2023-11-11T20:28:29Z</time>
      </trkpt>
      <trkpt lat="47.17427" lon="-1.53575">
        <ele>27</ele>
        <time>2023-11-11T20:28:58Z</time>
      </trkpt>
      <trkpt lat="47.17415" lon="-1.53538">
        <ele>26</ele>
        <time>2023-11-11T20:29:35Z</time>
      </trkpt>
      <trkpt lat="47.1743" lon="-1.53519">
        <ele>27</ele>
        <time>2023-11-11T20:30:02Z</time>
      </trkpt>
      <trkpt lat="47.17409" lon="-1.53442">
        <ele>27</ele>
        <time>2023-11-11T20:31:17Z</time>
      </trkpt>
      <trkpt lat="47.17407" lon="-1.53382">
        <ele>28</ele>
        <time>2023-11-11T20:32:12Z</time>
      </trkpt>
      <trkpt lat="47.17407" lon="-1.53325">
        <ele>28</ele>
        <time>2023-11-11T20:33:03Z</time>
      </trkpt>
      <trkpt lat="47.17401" lon="-1.53305">
        <ele>28</ele>
        <time>2023-11-11T20:33:23Z</time>
      </trkpt>
      <trkpt lat="47.17419" lon="-1.53246">
        <ele>27</ele>
        <time>2023-11-11T20:34:22Z</time>
      </trkpt>
      <trkpt lat="47.17442" lon="-1.53197">
        <ele>25</ele>
        <time>2023-11-11T20:35:16Z</time>
      </trkpt>
      <trkpt lat="47.17489" lon="-1.53172">
        <ele>24</ele>
        <time>2023-11-11T20:36:23Z</time>
      </trkpt>
      <trkpt lat="47.17572" lon="-1.53105">
        <ele>23</ele>
        <time>2023-11-11T20:38:29Z</time>
      </trkpt>
      <trkpt lat="47.17621" lon="-1.5309">
        <ele>23</ele>
        <time>2023-11-11T20:39:36Z</time>
      </trkpt>
      <trkpt lat="47.17632" lon="-1.53079">
        <ele>23</ele>
        <time>2023-11-11T20:39:53Z</time>
      </trkpt>
      <trkpt lat="47.17656" lon="-1.53082">
        <ele>22</ele>
        <time>2023-11-11T20:40:26Z</time>
      </trkpt>
      <trkpt lat="47.17677" lon="-1.53071">
        <ele>23</ele>
        <time>2023-11-11T20:40:55Z</time>
      </trkpt>
      <trkpt lat="47.17694" lon="-1.53054">
        <ele>23</ele>
        <time>2023-11-11T20:41:23Z</time>
      </trkpt>
      <trkpt lat="47.17692" lon="-1.53016">
        <ele>24</ele>
        <time>2023-11-11T20:41:57Z</time>
      </trkpt>
      <trkpt lat="47.1778" lon="-1.52962">
        <ele>21</ele>
        <time>2023-11-11T20:44:05Z</time>
      </trkpt>
      <trkpt lat="47.17802" lon="-1.52976">
        <ele>21</ele>
        <time>2023-11-11T20:44:37Z</time>
      </trkpt>
      <trkpt lat="47.1788" lon="-1.5289">
        <ele>17</ele>
        <time>2023-11-11T20:46:47Z</time>
      </trkpt>
      <trkpt lat="47.17888" lon="-1.52868">
        <ele>16</ele>
        <time>2023-11-11T20:47:09Z</time>
      </trkpt>
      <trkpt lat="47.17912" lon="-1.5283">
        <ele>14</ele>
        <time>2023-11-11T20:47:56Z</time>
      </trkpt>
      <trkpt lat="47.17931" lon="-1.5281">
        <ele>14</ele>
        <time>2023-11-11T20:48:28Z</time>
      </trkpt>
      <trkpt lat="47.17947" lon="-1.52768">
        <ele>14</ele>
        <time>2023-11-11T20:49:11Z</time>
      </trkpt>
      <trkpt lat="47.17962" lon="-1.52738">
        <ele>13</ele>
        <time>2023-11-11T20:49:45Z</time>
      </trkpt>
      <trkpt lat="47.1799" lon="-1.52693">
        <ele>11</ele>
        <time>2023-11-11T20:50:40Z</time>
      </trkpt>
      <trkpt lat="47.18029" lon="-1.52651">
        <ele>9</ele>
        <time>2023-11-11T20:51:45Z</time>
      </trkpt>
      <trkpt lat="47.18016" lon="-1.52631">
        <ele>9</ele>
        <time>2023-11-11T20:52:10Z</time>
      </trkpt>
      <trkpt lat="47.18059" lon="-1.5258">
        <ele>7</ele>
        <time>2023-11-11T20:53:24Z</time>
      </trkpt>
      <trkpt lat="47.18092" lon="-1.5256">
        <ele>6</ele>
        <time>2023-11-11T20:54:11Z</time>
      </trkpt>
      <trkpt lat="47.1813" lon="-1.52561">
        <ele>6</ele>
        <time>2023-11-11T20:55:02Z</time>
      </trkpt>
      <trkpt lat="47.1814" lon="-1.52576">
        <ele>6</ele>
        <time>2023-11-11T20:55:21Z</time>
      </trkpt>
      <trkpt lat="47.18178" lon="-1.52771">
        <ele>8</ele>
        <time>2023-11-11T20:58:25Z</time>
      </trkpt>
      <trkpt lat="47.18181" lon="-1.52817">
        <ele>8</ele>
        <time>2023-11-11T20:59:07Z</time>
      </trkpt>
      <trkpt lat="47.18268" lon="-1.5309">
        <ele>6</ele>
        <time>2023-11-11T21:03:40Z</time>
      </trkpt>
      <trkpt lat="47.1826" lon="-1.53131">
        <ele>7</ele>
        <time>2023-11-11T21:04:19Z</time>
      </trkpt>
      <trkpt lat="47.1828" lon="-1.53137">
        <ele>7</ele>
        <time>2023-11-11T21:04:46Z</time>
      </trkpt>
      <trkpt lat="47.1828" lon="-1.53162">
        <ele>7</ele>
        <time>2023-11-11T21:05:09Z</time>
      </trkpt>
      <trkpt lat="47.18291" lon="-1.53168">
        <ele>7</ele>
        <time>2023-11-11T21:05:25Z</time>
      </trkpt>
      <trkpt lat="47.1834" lon="-1.53245">
        <ele>7</ele>
        <time>2023-11-11T21:07:00Z</time>
      </trkpt>
      <trkpt lat="47.18391" lon="-1.53311">
        <ele>9</ele>
        <time>2023-11-11T21:08:31Z</time>
      </trkpt>
      <trkpt lat="47.185" lon="-1.53423">
        <ele>11</ele>
        <time>2023-11-11T21:11:28Z</time>
      </trkpt>
      <trkpt lat="47.18498" lon="-1.53434">
        <ele>12</ele>
        <time>2023-11-11T21:11:39Z</time>
      </trkpt>
      <trkpt lat="47.1855" lon="-1.53483">
        <ele>11</ele>
        <time>2023-11-11T21:13:01Z</time>
      </trkpt>
      <trkpt lat="47.18621" lon="-1.53543">
        <ele>12</ele>
        <time>2023-11-11T21:14:50Z</time>
      </trkpt>
      <trkpt lat="47.18785" lon="-1.53595">
        <ele>7</ele>
        <time>2023-11-11T21:18:34Z</time>
      </trkpt>
      <trkpt lat="47.18865" lon="-1.53629">
        <ele>6</ele>
        <time>2023-11-11T21:20:25Z</time>
      </trkpt>
      <trkpt lat="47.18954" lon="-1.5369">
        <ele>5</ele>
        <time>2023-11-11T21:22:36Z</time>
      </trkpt>
      <trkpt lat="47.19027" lon="-1.53752">
        <ele>7</ele>
        <time>2023-11-11T21:24:29Z</time>
      </trkpt>
      <trkpt lat="47.19117" lon="-1.53873">
        <ele>6</ele>
        <time>2023-11-11T21:27:12Z</time>
      </trkpt>
      <trkpt lat="47.19128" lon="-1.5389">
        <ele>6</ele>
        <time>2023-11-11T21:27:33Z</time>
      </trkpt>
      <trkpt lat="47.19147" lon="-1.53907">
        <ele>7</ele>
        <time>2023-11-11T21:28:02Z</time>
      </trkpt>
      <trkpt lat="47.19201" lon="-1.54008">
        <ele>5</ele>
        <time>2023-11-11T21:29:59Z</time>
      </trkpt>
      <trkpt lat="47.19251" lon="-1.5411">
        <ele>6</ele>
        <time>2023-11-11T21:31:53Z</time>
      </trkpt>
      <trkpt lat="47.19282" lon="-1.54176">
        <ele>7</ele>
        <time>2023-11-11T21:33:06Z</time>
      </trkpt>
      <trkpt lat="47.19296" lon="-1.54185">
        <ele>7</ele>
        <time>2023-11-11T21:33:26Z</time>
      </trkpt>
      <trkpt lat="47.19326" lon="-1.54246">
        <ele>7</ele>
        <time>2023-11-11T21:34:35Z</time>
      </trkpt>
      <trkpt lat="47.19347" lon="-1.54281">
        <ele>7</ele>
        <time>2023-11-11T21:35:17Z</time>
      </trkpt>
      <trkpt lat="47.19308" lon="-1.54307">
        <ele>7</ele>
        <time>2023-11-11T21:36:14Z</time>
      </trkpt>
      <trkpt lat="47.19274" lon="-1.54342">
        <ele>7</ele>
        <time>2023-11-11T21:37:09Z</time>
      </trkpt>
      <trkpt lat="47.19245" lon="-1.54365">
        <ele>7</ele>
        <time>2023-11-11T21:37:53Z</time>
      </trkpt>
      <trkpt lat="47.19203" lon="-1.54366">
        <ele>7</ele>
        <time>2023-11-11T21:38:49Z</time>
      </trkpt>
      <trkpt lat="47.19181" lon="-1.54383">
        <ele>7</ele>
        <time>2023-11-11T21:39:23Z</time>
      </trkpt>
      <trkpt lat="47.19177" lon="-1.54405">
        <ele>7</ele>
        <time>2023-11-11T21:39:43Z</time>
      </trkpt>
      <trkpt lat="47.19169" lon="-1.54403">
        <ele>7</ele>
        <time>2023-11-11T21:39:54Z</time>
      </trkpt>
      <trkpt lat="47.19143" lon="-1.54424">
        <ele>9</ele>
        <time>2023-11-11T21:40:34Z</time>
      </trkpt>
      <trkpt lat="47.19153" lon="-1.54518">
        <ele>10</ele>
        <time>2023-11-11T21:42:00Z</time>
      </trkpt>
      <trkpt lat="47.19169" lon="-1.54633">
        <ele>11</ele>
        <time>2023-11-11T21:43:46Z</time>
      </trkpt>
      <trkpt lat="47.19033" lon="-1.54718">
        <ele>13</ele>
        <time>2023-11-11T21:47:03Z</time>
      </trkpt>
      <trkpt lat="47.19023" lon="-1.54797">
        <ele>13</ele>
        <time>2023-11-11T21:48:16Z</time>
      </trkpt>
      <trkpt lat="47.18998" lon="-1.54797">
        <ele>13</ele>
        <time>2023-11-11T21:48:50Z</time>
      </trkpt>
      <trkpt lat="47.18994" lon="-1.54784">
        <ele>12</ele>
        <time>2023-11-11T21:49:03Z</time>
      </trkpt>
      <trkpt lat="47.18987" lon="-1.54778">
        <ele>12</ele>
        <time>2023-11-11T21:49:13Z</time>
      </trkpt>
      <trkpt lat="47.18978" lon="-1.54782">
        <ele>12</ele>
        <time>2023-11-11T21:49:26Z</time>
      </trkpt>
      <trkpt lat="47.18968" lon="-1.54786">
        <ele>12</ele>
        <time>2023-11-11T21:49:40Z</time>
      </trkpt>
      <trkpt lat="47.18963" lon="-1.54789">
        <ele>12</ele>
        <time>2023-11-11T21:49:47Z</time>
      </trkpt>
      <trkpt lat="47.18962" lon="-1.54797">
        <ele>12</ele>
        <time>2023-11-11T21:49:54Z</time>
      </trkpt>
      <trkpt lat="47.18959" lon="-1.54807">
        <ele>12</ele>
        <time>2023-11-11T21:50:04Z</time>
      </trkpt>
      <trkpt lat="47.18945" lon="-1.54809">
        <ele>12</ele>
        <time>2023-11-11T21:50:23Z</time>
      </trkpt>
      <trkpt lat="47.18943" lon="-1.5482">
        <ele>12</ele>
        <time>2023-11-11T21:50:33Z</time>
      </trkpt>
      <trkpt lat="47.18921" lon="-1.5483">
        <ele>12</ele>
        <time>2023-11-11T21:51:04Z</time>
      </trkpt>
      <trkpt lat="47.18895" lon="-1.54829">
        <ele>13</ele>
        <time>2023-11-11T21:51:39Z</time>
      </trkpt>
      <trkpt lat="47.18868" lon="-1.54887">
        <ele>15</ele>
        <time>2023-11-11T21:52:43Z</time>
      </trkpt>
      <trkpt lat="47.1881" lon="-1.54889">
        <ele>17</ele>
        <time>2023-11-11T21:54:00Z</time>
      </trkpt>
      <trkpt lat="47.18861" lon="-1.55124">
        <ele>16</ele>
        <time>2023-11-11T21:57:44Z</time>
      </trkpt>
      <trkpt lat="47.18913" lon="-1.55185">
        <ele>12</ele>
        <time>2023-11-11T21:59:13Z</time>
      </trkpt>
      <trkpt lat="47.19063" lon="-1.55039">
        <ele>14</ele>
        <time>2023-11-11T22:03:13Z</time>
      </trkpt>
      <trkpt lat="47.19115" lon="-1.55115">
        <ele>11</ele>
        <time>2023-11-11T22:04:50Z</time>
      </trkpt>
      <trkpt lat="47.19123" lon="-1.55101">
        <ele>11</ele>
        <time>2023-11-11T22:05:07Z</time>
      </trkpt>
      <trkpt lat="47.19122" lon="-1.55096">
        <ele>11</ele>
        <time>2023-11-11T22:05:12Z</time>
      </trkpt>
      <trkpt lat="47.19123" lon="-1.55086">
        <ele>12</ele>
        <time>2023-11-11T22:05:21Z</time>
      </trkpt>
      <trkpt lat="47.19131" lon="-1.55079">
        <ele>11</ele>
        <time>2023-11-11T22:05:33Z</time>
      </trkpt>
      <trkpt lat="47.19159" lon="-1.55058">
        <ele>10</ele>
        <time>2023-11-11T22:06:15Z</time>
      </trkpt>
      <trkpt lat="47.19199" lon="-1.55032">
        <ele>8</ele>
        <time>2023-11-11T22:07:14Z</time>
      </trkpt>
      <trkpt lat="47.19222" lon="-1.55018">
        <ele>7</ele>
        <time>2023-11-11T22:07:47Z</time>
      </trkpt>
      <trkpt lat="47.19263" lon="-1.55009">
        <ele>6</ele>
        <time>2023-11-11T22:08:42Z</time>
      </trkpt>
      <trkpt lat="47.19291" lon="-1.54997">
        <ele>7</ele>
        <time>2023-11-11T22:09:21Z</time>
      </trkpt>
      <trkpt lat="47.19303" lon="-1.54998">
        <ele>8</ele>
        <time>2023-11-11T22:09:37Z</time>
      </trkpt>
      <trkpt lat="47.19308" lon="-1.55022">
        <ele>8</ele>
        <time>2023-11-11T22:10:00Z</time>
      </trkpt>
      <trkpt lat="47.19293" lon="-1.55105">
        <ele>7</ele>
        <time>2023-11-11T22:11:18Z</time>
      </trkpt>
      <trkpt lat="47.19275" lon="-1.55167">
        <ele>6</ele>
        <time>2023-11-11T22:12:19Z</time>
      </trkpt>
      <trkpt lat="47.19264" lon="-1.5519">
        <ele>7</ele>
        <time>2023-11-11T22:12:44Z</time>
      </trkpt>
      <trkpt lat="47.19263" lon="-1.55213">
        <ele>7</ele>
        <time>2023-11-11T22:13:05Z</time>
      </trkpt>
      <trkpt lat="47.19232" lon="-1.55382">
        <ele>7</ele>
        <time>2023-11-11T22:15:44Z</time>
      </trkpt>
      <trkpt lat="47.192" lon="-1.5538">
        <ele>7</ele>
        <time>2023-11-11T22:16:27Z</time>
      </trkpt>
      <trkpt lat="47.19187" lon="-1.55388">
        <ele>7</ele>
        <time>2023-11-11T22:16:45Z</time>
      </trkpt>
      <trkpt lat="47.19174" lon="-1.55393">
        <ele>7</ele>
        <time>2023-11-11T22:17:03Z</time>
      </trkpt>
      <trkpt lat="47.19169" lon="-1.5541">
        <ele>7</ele>
        <time>2023-11-11T22:17:20Z</time>
      </trkpt>
      <trkpt lat="47.1917" lon="-1.55448">
        <ele>6</ele>
        <time>2023-11-11T22:17:55Z</time>
      </trkpt>
      <trkpt lat="47.19198" lon="-1.5546">
        <ele>6</ele>
        <time>2023-11-11T22:18:34Z</time>
      </trkpt>
      <trkpt lat="47.19201" lon="-1.55469">
        <ele>6</ele>
        <time>2023-11-11T22:18:43Z</time>
      </trkpt>
      <trkpt lat="47.19205" lon="-1.55485">
        <ele>6</ele>
        <time>2023-11-11T22:18:58Z</time>
      </trkpt>
      <trkpt lat="47.19207" lon="-1.55511">
        <ele>6</ele>
        <time>2023-11-11T22:19:22Z</time>
      </trkpt>
      <trkpt lat="47.19209" lon="-1.55533">
        <ele>6</ele>
        <time>2023-11-11T22:19:42Z</time>
      </trkpt>
      <trkpt lat="47.19206" lon="-1.55562">
        <ele>6</ele>
        <time>2023-11-11T22:20:09Z</time>
      </trkpt>
      <trkpt lat="47.19202" lon="-1.55594">
        <ele>6</ele>
        <time>2023-11-11T22:20:38Z</time>
      </trkpt>
      <trkpt lat="47.19202" lon="-1.55637">
        <ele>7</ele>
        <time>2023-11-11T22:21:17Z</time>
      </trkpt>
      <trkpt lat="47.19199" lon="-1.55698">
        <ele>7</ele>
        <time>2023-11-11T22:22:13Z</time>
      </trkpt>
      <trkpt lat="47.1921" lon="-1.55741">
        <ele>8</ele>
        <time>2023-11-11T22:22:54Z</time>
      </trkpt>
      <trkpt lat="47.19205" lon="-1.55758">
        <ele>8</ele>
        <time>2023-11-11T22:23:11Z</time>
      </trkpt>
      <trkpt lat="47.19233" lon="-1.56141">
        <ele>9</ele>
        <time>2023-11-11T22:29:00Z</time>
      </trkpt>
      <trkpt lat="47.19227" lon="-1.56192">
        <ele>8</ele>
        <time>2023-11-11T22:29:47Z</time>
      </trkpt>
      <trkpt lat="47.19217" lon="-1.5622">
        <ele>8</ele>
        <time>2023-11-11T22:30:16Z</time>
      </trkpt>
      <trkpt lat="47.19213" lon="-1.56286">
        <ele>8</ele>
        <time>2023-11-11T22:31:16Z</time>
      </trkpt>
      <trkpt lat="47.19215" lon="-1.56319">
        <ele>8</ele>
        <time>2023-11-11T22:31:46Z</time>
      </trkpt>
      <trkpt lat="47.19215" lon="-1.56348">
        <ele>8</ele>
        <time>2023-11-11T22:32:12Z</time>
      </trkpt>
      <trkpt lat="47.19235" lon="-1.56423">
        <ele>8</ele>
        <time>2023-11-11T22:33:25Z</time>
      </trkpt>
      <trkpt lat="47.19233" lon="-1.56468">
        <ele>7</ele>
        <time>2023-11-11T22:34:06Z</time>
      </trkpt>
      <trkpt lat="47.19229" lon="-1.56522">
        <ele>6</ele>
        <time>2023-11-11T22:34:56Z</time>
      </trkpt>
      <trkpt lat="47.19229" lon="-1.56538">
        <ele>5</ele>
        <time>2023-11-11T22:35:10Z</time>
      </trkpt>
      <trkpt lat="47.19226" lon="-1.56554">
        <ele>5</ele>
        <time>2023-11-11T22:35:25Z</time>
      </trkpt>
      <trkpt lat="47.19234" lon="-1.56562">
        <ele>5</ele>
        <time>2023-11-11T22:35:38Z</time>
      </trkpt>
      <trkpt lat="47.19233" lon="-1.56588">
        <ele>4</ele>
        <time>2023-11-11T22:36:02Z</time>
      </trkpt>
      <trkpt lat="47.19226" lon="-1.56605">
        <ele>5</ele>
        <time>2023-11-11T22:36:20Z</time>
      </trkpt>
      <trkpt lat="47.19222" lon="-1.5664">
        <ele>5</ele>
        <time>2023-11-11T22:36:52Z</time>
      </trkpt>
      <trkpt lat="47.19224" lon="-1.56655">
        <ele>5</ele>
        <time>2023-11-11T22:37:06Z</time>
      </trkpt>
      <trkpt lat="47.19224" lon="-1.56665">
        <ele>5</ele>
        <time>2023-11-11T22:37:15Z</time>
      </trkpt>
      <trkpt lat="47.19217" lon="-1.56737">
        <ele>6</ele>
        <time>2023-11-11T22:38:21Z</time>
      </trkpt>
      <trkpt lat="47.19213" lon="-1.56804">
        <ele>6</ele>
        <time>2023-11-11T22:39:22Z</time>
      </trkpt>
      <trkpt lat="47.19214" lon="-1.56862">
        <ele>6</ele>
        <time>2023-11-11T22:40:14Z</time>
      </trkpt>
      <trkpt lat="47.19236" lon="-1.56862">
        <ele>5</ele>
        <time>2023-11-11T22:40:44Z</time>
      </trkpt>
      <trkpt lat="47.19257" lon="-1.56864">
        <ele>4</ele>
        <time>2023-11-11T22:41:12Z</time>
      </trkpt>
      <trkpt lat="47.19263" lon="-1.56868">
        <ele>5</ele>
        <time>2023-11-11T22:41:21Z</time>
      </trkpt>
      <trkpt lat="47.19266" lon="-1.56901">
        <ele>5</ele>
        <time>2023-11-11T22:41:51Z</time>
      </trkpt>
      <trkpt lat="47.19264" lon="-1.56929">
        <ele>5</ele>
        <time>2023-11-11T22:42:16Z</time>
      </trkpt>
      <trkpt lat="47.19262" lon="-1.56977">
        <ele>5</ele>
        <time>2023-11-11T22:43:00Z</time>
      </trkpt>
      <trkpt lat="47.19258" lon="-1.56976">
        <ele>5</ele>
        <time>2023-11-11T22:43:05Z</time>
      </trkpt>
      <trkpt lat="47.19256" lon="-1.56991">
        <ele>5</ele>
        <time>2023-11-11T22:43:19Z</time>
      </trkpt>
      <trkpt lat="47.19233" lon="-1.56994">
        <ele>6</ele>
        <time>2023-11-11T22:43:50Z</time>
      </trkpt>
      <trkpt lat="47.19233" lon="-1.57024">
        <ele>6</ele>
        <time>2023-11-11T22:44:17Z</time>
      </trkpt>
      <trkpt lat="47.19232" lon="-1.57037">
        <ele>6</ele>
        <time>2023-11-11T22:44:29Z</time>
      </trkpt>
      <trkpt lat="47.19246" lon="-1.57044">
        <ele>5</ele>
        <time>2023-11-11T22:44:49Z</time>
      </trkpt>
      <trkpt lat="47.19253" lon="-1.57067">
        <ele>5</ele>
        <time>2023-11-11T22:45:12Z</time>
      </trkpt>
      <trkpt lat="47.19251" lon="-1.57087">
        <ele>5</ele>
        <time>2023-11-11T22:45:30Z</time>
      </trkpt>
      <trkpt lat="47.19246" lon="-1.57118">
        <ele>6</ele>
        <time>2023-11-11T22:45:59Z</time>
      </trkpt>
      <trkpt lat="47.1924" lon="-1.57133">
        <ele>7</ele>
        <time>2023-11-11T22:46:15Z</time>
      </trkpt>
      <trkpt lat="47.19229" lon="-1.57152">
        <ele>8</ele>
        <time>2023-11-11T22:46:37Z</time>
      </trkpt>
      <trkpt lat="47.19237" lon="-1.57175">
        <ele>8</ele>
        <time>2023-11-11T22:47:01Z</time>
      </trkpt>
      <trkpt lat="47.19233" lon="-1.57203">
        <ele>8</ele>
        <time>2023-11-11T22:47:27Z</time>
      </trkpt>
      <trkpt lat="47.19232" lon="-1.57221">
        <ele>8</ele>
        <time>2023-11-11T22:47:43Z</time>
      </trkpt>
      <trkpt lat="47.1923" lon="-1.57239">
        <ele>8</ele>
        <time>2023-11-11T22:48:00Z</time>
      </trkpt>
      <trkpt lat="47.19221" lon="-1.57256">
        <ele>8</ele>
        <time>2023-11-11T22:48:19Z</time>
      </trkpt>
      <trkpt lat="47.19204" lon="-1.5726">
        <ele>8</ele>
        <time>2023-11-11T22:48:42Z</time>
      </trkpt>
      <trkpt lat="47.19174" lon="-1.57256">
        <ele>9</ele>
        <time>2023-11-11T22:49:22Z</time>
      </trkpt>
      <trkpt lat="47.19141" lon="-1.57239">
        <ele>9</ele>
        <time>2023-11-11T22:50:09Z</time>
      </trkpt>
      <trkpt lat="47.19131" lon="-1.57276">
        <ele>8</ele>
        <time>2023-11-11T22:50:45Z</time>
      </trkpt>
      <trkpt lat="47.1912" lon="-1.57313">
        <ele>8</ele>
        <time>2023-11-11T22:51:22Z</time>
      </trkpt>
      <trkpt lat="47.1911" lon="-1.57374">
        <ele>7</ele>
        <time>2023-11-11T22:52:19Z</time>
      </trkpt>
      <trkpt lat="47.19097" lon="-1.5741">
        <ele>6</ele>
        <time>2023-11-11T22:52:56Z</time>
      </trkpt>
      <trkpt lat="47.19078" lon="-1.57458">
        <ele>7</ele>
        <time>2023-11-11T22:53:46Z</time>
      </trkpt>
      <trkpt lat="47.19067" lon="-1.57477">
        <ele>8</ele>
        <time>2023-11-11T22:54:09Z</time>
      </trkpt>
      <trkpt lat="47.19057" lon="-1.57503">
        <ele>8</ele>
        <time>2023-11-11T22:54:36Z</time>
      </trkpt>
      <trkpt lat="47.19042" lon="-1.5754">
        <ele>8</ele>
        <time>2023-11-11T22:55:15Z</time>
      </trkpt>
      <trkpt lat="47.19025" lon="-1.57562">
        <ele>8</ele>
        <time>2023-11-11T22:55:45Z</time>
      </trkpt>
      <trkpt lat="47.19019" lon="-1.57602">
        <ele>7</ele>
        <time>2023-11-11T22:56:22Z</time>
      </trkpt>
      <trkpt lat="47.18941" lon="-1.57578">
        <ele>11</ele>
        <time>2023-11-11T22:58:08Z</time>
      </trkpt>
      <trkpt lat="47.18784" lon="-1.57486">
        <ele>8</ele>
        <time>2023-11-11T23:01:54Z</time>
      </trkpt>
      <trkpt lat="47.18765" lon="-1.5746">
        <ele>9</ele>
        <time>2023-11-11T23:02:29Z</time>
      </trkpt>
      <trkpt lat="47.18749" lon="-1.5742">
        <ele>9</ele>
        <time>2023-11-11T23:03:11Z</time>
      </trkpt>
      <trkpt lat="47.18675" lon="-1.57406">
        <ele>11</ele>
        <time>2023-11-11T23:04:50Z</time>
      </trkpt>
      <trkpt lat="47.18664" lon="-1.57383">
        <ele>12</ele>
        <time>2023-11-11T23:05:16Z</time>
      </trkpt>
      <trkpt lat="47.18651" lon="-1.5737">
        <ele>13</ele>
        <time>2023-11-11T23:05:37Z</time>
      </trkpt>
      <trkpt lat="47.18623" lon="-1.57372">
        <ele>13</ele>
        <time>2023-11-11T23:06:14Z</time>
      </trkpt>
      <trkpt lat="47.18602" lon="-1.57373">
        <ele>13</ele>
        <time>2023-11-11T23:06:42Z</time>
      </trkpt>
      <trkpt lat="47.18582" lon="-1.57366">
        <ele>14</ele>
        <time>2023-11-11T23:07:10Z</time>
      </trkpt>
      <trkpt lat="47.18565" lon="-1.57366">
        <ele>14</ele>
        <time>2023-11-11T23:07:32Z</time>
      </trkpt>
      <trkpt lat="47.1856" lon="-1.57363">
        <ele>14</ele>
        <time>2023-11-11T23:07:40Z</time>
      </trkpt>
      <trkpt lat="47.18511" lon="-1.57369">
        <ele>16</ele>
        <time>2023-11-11T23:08:45Z</time>
      </trkpt>
      <trkpt lat="47.18505" lon="-1.57377">
        <ele>16</ele>
        <time>2023-11-11T23:08:56Z</time>
      </trkpt>
      <trkpt lat="47.18496" lon="-1.5739">
        <ele>16</ele>
        <time>2023-11-11T23:09:13Z</time>
      </trkpt>
      <trkpt lat="47.1849" lon="-1.57414">
        <ele>15</ele>
        <time>2023-11-11T23:09:36Z</time>
      </trkpt>
      <trkpt lat="47.18463" lon="-1.57417">
        <ele>16</ele>
        <time>2023-11-11T23:10:12Z</time>
      </trkpt>
      <trkpt lat="47.18439" lon="-1.57395">
        <ele>17</ele>
        <time>2023-11-11T23:10:50Z</time>
      </trkpt>
      <trkpt lat="47.18394" lon="-1.57415">
        <ele>17</ele>
        <time>2023-11-11T23:11:53Z</time>
      </trkpt>
      <trkpt lat="47.18381" lon="-1.5742">
        <ele>17</ele>
        <time>2023-11-11T23:12:11Z</time>
      </trkpt>
      <trkpt lat="47.18357" lon="-1.57424">
        <ele>18</ele>
        <time>2023-11-11T23:12:43Z</time>
      </trkpt>
      <trkpt lat="47.18342" lon="-1.5743">
        <ele>18</ele>
        <time>2023-11-11T23:13:03Z</time>
      </trkpt>
      <trkpt lat="47.18328" lon="-1.5743">
        <ele>18</ele>
        <time>2023-11-11T23:13:22Z</time>
      </trkpt>
      <trkpt lat="47.183" lon="-1.57437">
        <ele>18</ele>
        <time>2023-11-11T23:14:00Z</time>
      </trkpt>
      <trkpt lat="47.18272" lon="-1.57456">
        <ele>19</ele>
        <time>2023-11-11T23:14:41Z</time>
      </trkpt>
      <trkpt lat="47.18251" lon="-1.57437">
        <ele>18</ele>
        <time>2023-11-11T23:15:14Z</time>
      </trkpt>
      <trkpt lat="47.18249" lon="-1.57425">
        <ele>18</ele>
        <time>2023-11-11T23:15:25Z</time>
      </trkpt>
      <trkpt lat="47.18232" lon="-1.57412">
        <ele>18</ele>
        <time>2023-11-11T23:15:51Z</time>
      </trkpt>
      <trkpt lat="47.18214" lon="-1.57392">
        <ele>19</ele>
        <time>2023-11-11T23:16:21Z</time>
      </trkpt>
      <trkpt lat="47.18209" lon="-1.5739">
        <ele>19</ele>
        <time>2023-11-11T23:16:28Z</time>
      </trkpt>
      <trkpt lat="47.18187" lon="-1.57383">
        <ele>19</ele>
        <time>2023-11-11T23:16:58Z</time>
      </trkpt>
      <trkpt lat="47.18127" lon="-1.57362">
        <ele>18</ele>
        <time>2023-11-11T23:18:20Z</time>
      </trkpt>
      <trkpt lat="47.18093" lon="-1.57372">
        <ele>19</ele>
        <time>2023-11-11T23:19:07Z</time>
      </trkpt>
      <trkpt lat="47.18082" lon="-1.57352">
        <ele>19</ele>
        <time>2023-11-11T23:19:30Z</time>
      </trkpt>
      <trkpt lat="47.18074" lon="-1.57313">
        <ele>20</ele>
        <time>2023-11-11T23:20:07Z</time>
      </trkpt>
      <trkpt lat="47.18064" lon="-1.57283">
        <ele>20</ele>
        <time>2023-11-11T23:20:37Z</time>
      </trkpt>
      <trkpt lat="47.18051" lon="-1.57225">
        <ele>21</ele>
        <time>2023-11-11T23:21:33Z</time>
      </trkpt>
      <trkpt lat="47.18053" lon="-1.57202">
        <ele>22</ele>
        <time>2023-11-11T23:21:54Z</time>
      </trkpt>
      <trkpt lat="47.18056" lon="-1.57182">
        <ele>22</ele>
        <time>2023-11-11T23:22:12Z</time>
      </trkpt>
      <trkpt lat="47.18063" lon="-1.57147">
        <ele>22</ele>
        <time>2023-11-11T23:22:45Z</time>
      </trkpt>
    </trkseg>
  </trk>
</gpx>